createdAt,value
2019-04-03T00:02:04.048Z,1.90
2019-04-03T00:04:34.385Z,1.75
2019-04-03T00:07:03.857Z,2.00
2019-04-03T00:09:33.031Z,1.77
2019-04-03T00:12:01.244Z,2.25
2019-04-03T00:14:29.664Z,1.62
2019-04-03T00:16:58.071Z,2.10
2019-04-03T00:19:26.603Z,1.77
2019-04-03T00:21:55.161Z,1.77
2019-04-03T00:24:23.646Z,1.92
2019-04-03T00:26:52.839Z,1.55
2019-04-03T00:29:22.642Z,1.70
2019-04-03T00:31:53.096Z,2.02
2019-04-03T00:34:22.973Z,2.75
2019-04-03T00:36:53.034Z,1.98
2019-04-03T00:39:23.959Z,1.72
2019-04-03T00:41:52.928Z,2.10
2019-04-03T00:44:41.019Z,1.60
2019-04-03T00:49:44.334Z,1.80
2019-04-03T00:54:41.679Z,2.02
2019-04-03T00:57:10.168Z,1.75
2019-04-03T00:59:38.748Z,1.98
2019-04-03T01:02:07.241Z,2.20
2019-04-03T01:04:36.351Z,2.47
2019-04-03T01:09:33.700Z,2.25
2019-04-03T01:12:02.097Z,2.08
2019-04-03T01:14:31.636Z,1.60
2019-04-03T01:17:00.268Z,2.00
2019-04-03T01:19:28.679Z,1.70
2019-04-03T01:21:57.158Z,1.90
2019-04-03T01:27:04.907Z,2.62
2019-04-03T01:29:33.441Z,1.82
2019-04-03T01:32:01.837Z,2.00
2019-04-03T01:34:30.254Z,1.60
2019-04-03T01:36:58.653Z,1.87
2019-04-03T01:39:27.073Z,2.45
2019-04-03T01:41:55.609Z,1.95
2019-04-03T01:44:24.705Z,2.20
2019-04-03T01:46:53.740Z,2.35
2019-04-03T01:49:22.186Z,2.58
2019-04-03T01:51:50.586Z,2.40
2019-04-03T01:54:19.007Z,2.12
2019-04-03T01:56:47.409Z,2.37
2019-04-03T01:59:15.858Z,2.35
2019-04-03T02:01:43.938Z,2.10
2019-04-03T02:04:13.085Z,2.58
2019-04-03T02:06:43.498Z,2.25
2019-04-03T02:09:12.430Z,2.00
2019-04-03T02:11:42.384Z,2.22
2019-04-03T02:14:10.859Z,2.60
2019-04-03T02:16:39.460Z,2.20
2019-04-03T02:19:08.189Z,4.70
2019-04-03T02:24:50.128Z,2.58
2019-04-03T02:27:18.532Z,2.75
2019-04-03T02:29:49.616Z,2.40
2019-04-03T02:32:18.275Z,2.67
2019-04-03T02:34:46.919Z,2.58
2019-04-03T02:37:16.874Z,3.17
2019-04-03T02:39:45.545Z,2.62
2019-04-03T02:42:14.215Z,2.98
2019-04-03T02:44:42.627Z,2.70
2019-04-03T02:47:11.034Z,2.62
2019-04-03T02:49:41.334Z,2.60
2019-04-03T02:52:10.012Z,3.17
2019-04-03T02:55:04.593Z,3.10
2019-04-03T02:57:32.339Z,2.85
2019-04-03T03:00:01.016Z,2.85
2019-04-03T03:02:30.167Z,3.08
2019-04-03T03:07:36.409Z,5.12
2019-04-03T03:10:07.110Z,2.55
2019-04-03T03:12:38.344Z,3.47
2019-04-03T03:17:46.206Z,3.15
2019-04-03T03:20:16.515Z,2.75
2019-04-03T03:22:45.679Z,3.50
2019-04-03T03:25:14.828Z,2.87
2019-04-03T03:27:43.354Z,3.22
2019-04-03T03:36:02.362Z,3.08
2019-04-03T03:38:31.589Z,3.08
2019-04-03T03:41:00.112Z,2.67
2019-04-03T03:43:28.810Z,3.20
2019-04-03T03:45:57.866Z,3.58
2019-04-03T03:48:26.962Z,3.42
2019-04-03T03:50:58.031Z,3.27
2019-04-03T03:53:26.586Z,3.50
2019-04-03T03:58:22.249Z,2.55
2019-04-03T04:00:52.295Z,3.30
2019-04-03T04:03:20.787Z,3.08
2019-04-03T04:05:53.823Z,2.85
2019-04-03T04:08:20.484Z,3.33
2019-04-03T04:10:50.141Z,2.83
2019-04-03T04:16:16.956Z,2.95
2019-04-03T04:18:45.479Z,2.87
2019-04-03T04:21:15.116Z,3.05
2019-04-03T04:23:44.402Z,3.17
2019-04-03T04:26:13.565Z,3.92
2019-04-03T04:28:42.054Z,3.33
2019-04-03T04:31:12.337Z,3.50
2019-04-03T04:33:40.384Z,3.22
2019-04-03T04:36:08.781Z,3.20
2019-04-03T04:38:37.419Z,2.90
2019-04-03T04:41:05.943Z,3.10
2019-04-03T04:43:34.679Z,2.83
2019-04-03T04:46:02.744Z,2.75
2019-04-03T04:48:31.161Z,3.08
2019-04-03T04:50:59.591Z,3.00
2019-04-03T04:53:29.870Z,2.75
2019-04-03T04:55:58.144Z,2.40
2019-04-03T04:58:26.224Z,2.55
2019-04-03T05:00:54.916Z,3.12
2019-04-03T05:03:23.311Z,2.83
2019-04-03T05:05:51.704Z,3.20
2019-04-03T05:08:20.189Z,3.20
2019-04-03T05:10:49.140Z,2.62
2019-04-03T05:13:18.017Z,3.33
2019-04-03T05:15:46.414Z,2.85
2019-04-03T05:18:14.717Z,3.30
2019-04-03T05:20:43.187Z,3.17
2019-04-03T05:23:11.821Z,2.92
2019-04-03T05:25:40.078Z,3.02
2019-04-03T05:28:08.547Z,3.30
2019-04-03T05:30:56.543Z,3.72
2019-04-03T05:33:24.661Z,3.42
2019-04-03T05:35:52.736Z,3.58
2019-04-03T05:38:22.511Z,3.22
2019-04-03T05:40:51.160Z,3.02
2019-04-03T05:43:19.595Z,3.30
2019-04-03T05:45:47.680Z,3.87
2019-04-03T05:48:17.662Z,3.55
2019-04-03T05:50:45.631Z,3.20
2019-04-03T05:53:14.062Z,3.42
2019-04-03T05:55:42.457Z,3.65
2019-04-03T05:58:11.031Z,3.80
2019-04-03T06:00:39.556Z,2.75
2019-04-03T06:03:07.958Z,3.58
2019-04-03T06:05:36.419Z,4.00
2019-04-03T06:08:05.266Z,4.47
2019-04-03T06:10:36.544Z,3.17
2019-04-03T06:13:05.551Z,3.30
2019-04-03T06:15:33.771Z,3.22
2019-04-03T06:18:02.166Z,3.37
2019-04-03T06:20:30.731Z,4.10
2019-04-03T06:22:59.151Z,3.72
2019-04-03T06:25:30.018Z,3.58
2019-04-03T06:27:57.481Z,3.92
2019-04-03T06:30:26.365Z,3.70
2019-04-03T06:32:55.410Z,3.77
2019-04-03T06:35:23.727Z,3.55
2019-04-03T06:37:53.223Z,3.92
2019-04-03T06:40:22.177Z,3.80
2019-04-03T06:42:50.863Z,3.60
2019-04-03T06:45:19.588Z,3.77
2019-04-03T06:47:47.978Z,4.58
2019-04-03T06:50:17.567Z,4.87
2019-04-03T06:52:46.346Z,5.67
2019-04-03T06:55:14.520Z,4.37
2019-04-03T06:57:42.586Z,4.78
2019-04-03T07:00:11.744Z,4.22
2019-04-03T07:02:40.191Z,5.08
2019-04-03T07:05:10.532Z,4.65
2019-04-03T07:07:38.421Z,3.65
2019-04-03T07:10:08.798Z,3.20
2019-04-03T07:12:36.929Z,4.15
2019-04-03T07:15:07.185Z,4.33
2019-04-03T07:17:35.333Z,4.28
2019-04-03T07:20:13.517Z,5.05
2019-04-03T07:22:35.250Z,4.10
2019-04-03T07:25:04.700Z,4.60
2019-04-03T07:27:33.463Z,4.37
2019-04-03T07:30:04.315Z,4.97
2019-04-03T07:32:32.864Z,4.33
2019-04-03T07:35:02.848Z,4.60
2019-04-03T07:37:31.533Z,4.83
2019-04-03T07:40:00.138Z,4.92
2019-04-03T07:42:28.410Z,4.70
2019-04-03T07:44:56.883Z,4.47
2019-04-03T07:47:25.065Z,4.28
2019-04-03T07:49:53.472Z,4.62
2019-04-03T07:52:21.553Z,4.92
2019-04-03T07:54:50.737Z,5.05
2019-04-03T07:57:19.483Z,4.83
2019-04-03T07:59:47.885Z,5.08
2019-04-03T08:02:16.285Z,4.75
2019-04-03T08:04:44.829Z,5.28
2019-04-03T08:07:13.533Z,5.20
2019-04-03T08:10:01.684Z,5.72
2019-04-03T08:12:29.976Z,5.05
2019-04-03T08:14:58.436Z,5.47
2019-04-03T08:17:26.876Z,5.67
2019-04-03T08:19:55.338Z,4.78
2019-04-03T08:22:23.550Z,4.80
2019-04-03T08:25:12.564Z,5.42
2019-04-03T08:27:41.323Z,4.78
2019-04-03T08:30:11.029Z,4.50
2019-04-03T08:32:39.453Z,4.60
2019-04-03T08:35:19.293Z,5.25
2019-04-03T08:37:40.629Z,4.75
2019-04-03T08:40:08.525Z,5.70
2019-04-03T08:42:37.378Z,5.33
2019-04-03T08:45:10.515Z,6.33
2019-04-03T08:47:39.360Z,5.45
2019-04-03T08:50:10.487Z,5.22
2019-04-03T08:52:39.641Z,5.90
2019-04-03T08:55:09.354Z,5.80
2019-04-03T08:57:37.782Z,5.28
2019-04-03T09:00:07.736Z,6.67
2019-04-03T09:02:36.157Z,5.90
2019-04-03T09:05:05.724Z,5.35
2019-04-03T09:07:34.343Z,5.95
2019-04-03T09:10:02.681Z,5.67
2019-04-03T09:12:31.310Z,5.40
2019-04-03T09:15:00.013Z,5.97
2019-04-03T09:17:28.173Z,6.08
2019-04-03T09:19:57.805Z,4.92
2019-04-03T09:22:26.138Z,5.35
2019-04-03T09:24:54.461Z,4.80
2019-04-03T09:27:23.030Z,4.75
2019-04-03T09:29:51.738Z,4.90
2019-04-03T09:32:20.909Z,4.47
2019-04-03T09:34:50.010Z,4.70
2019-04-03T09:37:18.756Z,4.75
2019-04-03T09:39:47.311Z,4.65
2019-04-03T09:42:16.295Z,5.20
2019-04-03T09:44:44.734Z,4.78
2019-04-03T09:47:12.878Z,5.15
2019-04-03T09:49:43.754Z,5.17
2019-04-03T09:52:11.498Z,4.80
2019-04-03T09:54:41.597Z,5.42
2019-04-03T09:57:10.401Z,4.95
2019-04-03T09:59:38.888Z,4.53
2019-04-03T10:02:07.115Z,4.42
2019-04-03T10:04:35.560Z,4.65
2019-04-03T10:07:04.171Z,4.15
2019-04-03T10:09:32.309Z,3.77
2019-04-03T10:12:20.877Z,3.55
2019-04-03T10:14:50.476Z,4.10
2019-04-03T10:17:18.716Z,4.05
2019-04-03T10:19:46.819Z,4.22
2019-04-03T10:22:15.277Z,3.55
2019-04-03T10:24:44.022Z,3.12
2019-04-03T10:27:12.658Z,2.83
2019-04-03T10:29:41.213Z,2.55
2019-04-03T10:32:09.780Z,2.90
2019-04-03T10:34:38.175Z,1.85
2019-04-03T10:37:06.268Z,2.20
2019-04-03T10:39:34.580Z,2.02
2019-04-03T10:42:03.783Z,2.35
2019-04-03T10:44:32.032Z,1.60
2019-04-03T10:47:00.488Z,2.00
2019-04-03T10:49:31.537Z,2.80
2019-04-03T10:51:58.701Z,2.40
2019-04-03T10:54:27.266Z,2.33
2019-04-03T10:56:55.906Z,2.05
2019-04-03T10:59:24.313Z,1.95
2019-04-03T11:01:52.487Z,1.80
2019-04-03T11:04:20.887Z,1.85
2019-04-03T11:06:49.299Z,1.92
2019-04-03T11:09:17.797Z,1.70
2019-04-03T11:11:46.393Z,2.20
2019-04-03T11:14:15.104Z,1.95
2019-04-03T11:16:46.469Z,2.15
2019-04-03T11:19:13.728Z,2.40
2019-04-03T11:21:44.115Z,2.12
2019-04-03T11:24:12.367Z,1.98
2019-04-03T11:26:40.956Z,2.12
2019-04-03T11:29:10.425Z,1.67
2019-04-03T11:31:41.887Z,1.90
2019-04-03T11:34:09.458Z,1.82
2019-04-03T11:36:38.191Z,1.50
2019-04-03T11:39:14.927Z,1.95
2019-04-03T11:41:39.564Z,2.00
2019-04-03T11:44:08.260Z,2.27
2019-04-03T11:46:36.988Z,2.17
2019-04-03T11:49:05.568Z,2.00
2019-04-03T11:51:34.533Z,2.00
2019-04-03T11:54:03.291Z,1.70
2019-04-03T11:56:31.926Z,2.20
2019-04-03T11:59:00.600Z,1.35
2019-04-03T12:01:29.755Z,1.20
2019-04-03T12:03:58.421Z,0.93
2019-04-03T12:06:27.400Z,0.80
2019-04-03T12:08:55.907Z,0.80
2019-04-03T12:11:24.304Z,1.00
2019-04-03T12:13:52.758Z,1.20
2019-04-03T12:16:24.013Z,1.15
2019-04-03T12:18:51.628Z,1.47
2019-04-03T12:21:20.357Z,0.50
2019-04-03T12:23:48.590Z,0.80
2019-04-03T12:26:19.810Z,0.60
2019-04-03T12:28:49.031Z,0.50
2019-04-03T12:31:17.421Z,0.70
2019-04-03T12:33:53.154Z,0.60
2019-04-03T12:36:15.977Z,0.50
2019-04-03T12:38:44.509Z,0.80
2019-04-03T12:41:13.412Z,0.60
2019-04-03T12:43:41.750Z,0.60
2019-04-03T12:46:10.265Z,0.50
2019-04-03T12:48:38.986Z,0.50
2019-04-03T12:51:07.624Z,0.80
2019-04-03T12:53:36.031Z,0.65
2019-04-03T12:56:04.440Z,0.50
2019-04-03T12:58:52.186Z,1.57
2019-04-03T13:01:20.842Z,0.30
2019-04-03T13:04:08.818Z,0.62
2019-04-03T13:06:40.600Z,0.40
2019-04-03T13:09:09.398Z,0.50
2019-04-03T13:11:37.855Z,0.40
2019-04-03T13:14:06.320Z,0.42
2019-04-03T13:16:34.709Z,0.40
2019-04-03T13:19:24.542Z,0.30
2019-04-03T13:21:52.696Z,0.33
2019-04-03T13:24:21.427Z,0.40
2019-04-03T13:26:50.402Z,0.50
2019-04-03T13:29:20.845Z,0.50
2019-04-03T13:31:49.051Z,0.47
2019-04-03T13:34:17.630Z,0.40
2019-04-03T13:36:46.211Z,0.47
2019-04-03T13:39:14.779Z,0.42
2019-04-03T13:41:43.384Z,0.53
2019-04-03T13:44:12.386Z,0.98
2019-04-03T13:46:40.933Z,0.70
2019-04-03T13:49:09.564Z,0.65
2019-04-03T13:51:38.385Z,0.50
2019-04-03T13:54:08.000Z,0.47
2019-04-03T13:56:37.029Z,0.50
2019-04-03T13:59:05.885Z,0.40
2019-04-03T14:01:34.700Z,0.42
2019-04-03T14:04:03.686Z,0.50
2019-04-03T14:06:31.828Z,0.50
2019-04-03T14:09:00.678Z,0.53
2019-04-03T14:11:30.920Z,0.40
2019-04-03T14:13:59.512Z,0.57
2019-04-03T14:16:27.936Z,0.40
2019-04-03T14:18:56.646Z,0.50
2019-04-03T14:21:27.592Z,0.50
2019-04-03T14:23:55.520Z,0.62
2019-04-03T14:26:24.010Z,0.70
2019-04-03T14:28:52.476Z,0.70
2019-04-03T14:31:32.724Z,0.50
2019-04-03T14:33:51.106Z,0.50
2019-04-03T14:36:19.659Z,2.80
2019-04-03T14:38:47.997Z,0.60
2019-04-03T14:41:18.595Z,0.50
2019-04-03T14:43:46.399Z,0.60
2019-04-03T14:46:17.302Z,0.57
2019-04-03T14:48:44.966Z,0.40
2019-04-03T14:51:13.472Z,0.60
2019-04-03T14:53:42.381Z,0.50
2019-04-03T14:56:10.734Z,0.60
2019-04-03T14:58:39.273Z,0.45
2019-04-03T15:01:07.920Z,0.50
2019-04-03T15:03:37.109Z,0.50
2019-04-03T15:06:05.860Z,0.75
2019-04-03T15:08:34.631Z,0.60
2019-04-03T15:11:03.813Z,0.47
2019-04-03T15:13:32.295Z,0.40
2019-04-03T15:16:01.202Z,0.55
2019-04-03T15:18:30.227Z,0.60
2019-04-03T15:20:58.807Z,0.50
2019-04-03T15:23:27.252Z,0.40
2019-04-03T15:25:55.811Z,0.90
2019-04-03T15:28:24.444Z,0.40
2019-04-03T15:30:52.862Z,0.70
2019-04-03T15:33:23.039Z,0.30
2019-04-03T15:35:51.419Z,0.50
2019-04-03T15:38:19.876Z,0.72
2019-04-03T15:40:48.864Z,0.57
2019-04-03T15:43:17.386Z,0.42
2019-04-03T15:45:45.826Z,0.50
2019-04-03T15:48:13.948Z,0.57
2019-04-03T15:50:42.383Z,0.62
2019-04-03T15:53:10.796Z,0.70
2019-04-03T15:55:39.580Z,0.50
2019-04-03T15:58:08.329Z,0.62
2019-04-03T16:00:36.998Z,0.57
2019-04-03T16:03:05.339Z,0.55
2019-04-03T16:05:35.997Z,0.60
2019-04-03T16:08:04.511Z,0.80
2019-04-03T16:10:32.916Z,0.35
2019-04-03T16:13:01.326Z,0.60
2019-04-03T16:15:29.910Z,0.90
2019-04-03T16:17:58.958Z,0.60
2019-04-03T16:20:27.667Z,0.53
2019-04-03T16:22:56.214Z,0.60
2019-04-03T16:25:24.669Z,0.40
2019-04-03T16:27:53.322Z,0.60
2019-04-03T16:30:41.335Z,0.50
2019-04-03T16:33:19.843Z,0.60
2019-04-03T16:35:39.887Z,0.70
2019-04-03T16:38:08.352Z,0.50
2019-04-03T16:40:38.269Z,0.80
2019-04-03T16:43:06.979Z,0.60
2019-04-03T16:45:37.737Z,0.53
2019-04-03T16:48:05.729Z,0.82
2019-04-03T16:50:34.741Z,0.60
2019-04-03T16:53:03.479Z,0.60
2019-04-03T16:55:32.912Z,0.70
2019-04-03T16:58:01.363Z,0.90
2019-04-03T17:00:29.836Z,0.50
2019-04-03T17:02:58.354Z,0.45
2019-04-03T17:05:26.856Z,0.70
2019-04-03T17:07:55.657Z,0.80
2019-04-03T17:10:24.219Z,0.82
2019-04-03T17:12:54.685Z,0.57
2019-04-03T17:15:23.611Z,0.70
2019-04-03T17:17:52.083Z,0.45
2019-04-03T17:20:39.829Z,0.60
2019-04-03T17:23:10.986Z,0.70
2019-04-03T17:25:45.858Z,0.90
2019-04-03T17:28:10.202Z,0.50
2019-04-03T17:30:38.339Z,0.55
2019-04-03T17:33:06.756Z,0.60
2019-04-03T17:35:35.253Z,0.60
2019-04-03T17:38:03.863Z,0.57
2019-04-03T17:40:31.933Z,1.57
2019-04-03T17:43:00.402Z,0.78
2019-04-03T17:45:28.862Z,0.85
2019-04-03T17:47:56.928Z,0.62
2019-04-03T17:50:25.046Z,0.85
2019-04-03T17:52:53.440Z,0.70
2019-04-03T17:55:21.853Z,0.60
2019-04-03T17:57:50.321Z,0.62
2019-04-03T18:00:20.981Z,0.70
2019-04-03T18:02:49.967Z,0.60
2019-04-03T18:05:19.211Z,0.60
2019-04-03T18:07:47.612Z,0.50
2019-04-03T18:10:16.169Z,0.70
2019-04-03T18:12:45.793Z,0.70
2019-04-03T18:15:18.964Z,0.70
2019-04-03T18:17:47.345Z,0.70
2019-04-03T18:20:16.531Z,0.60
2019-04-03T18:22:44.948Z,0.60
2019-04-03T18:25:13.634Z,0.70
2019-04-03T18:30:17.925Z,0.60
2019-04-03T18:32:46.644Z,0.65
2019-04-03T18:35:15.344Z,0.60
2019-04-03T18:37:43.427Z,0.75
2019-04-03T18:40:13.879Z,0.60
2019-04-03T18:42:42.125Z,0.60
2019-04-03T18:45:24.076Z,0.70
2019-04-03T18:47:43.843Z,1.60
2019-04-03T18:50:10.987Z,1.15
2019-04-03T18:52:39.529Z,0.68
2019-04-03T18:55:08.475Z,0.70
2019-04-03T18:57:36.920Z,0.70
2019-04-03T19:00:08.406Z,0.50
2019-04-03T19:02:37.424Z,0.50
2019-04-03T19:05:09.877Z,0.57
2019-04-03T19:07:37.963Z,0.60
2019-04-03T19:10:07.827Z,0.50
2019-04-03T19:12:36.287Z,0.60
2019-04-03T19:15:06.392Z,0.75
2019-04-03T19:17:36.477Z,0.72
2019-04-03T19:20:10.800Z,0.82
2019-04-03T19:22:36.799Z,5.85
2019-04-03T19:25:07.912Z,0.60
2019-04-03T19:27:38.622Z,1.15
2019-04-03T19:30:07.853Z,0.90
2019-04-03T19:32:36.479Z,0.75
2019-04-03T19:35:09.430Z,0.60
2019-04-03T19:37:38.090Z,0.60
2019-04-03T19:40:09.438Z,0.50
2019-04-03T19:42:37.143Z,0.75
2019-04-03T19:45:12.825Z,0.60
2019-04-03T19:47:39.992Z,0.60
2019-04-03T19:50:09.475Z,0.70
2019-04-03T19:52:41.584Z,0.55
2019-04-03T19:55:08.465Z,0.65
2019-04-03T19:57:36.885Z,0.78
2019-04-03T20:00:08.935Z,0.37
2019-04-03T20:03:03.553Z,0.60
2019-04-03T20:05:31.649Z,0.50
2019-04-03T20:08:00.107Z,0.47
2019-04-03T20:10:28.557Z,0.60
2019-04-03T20:12:56.948Z,0.68
2019-04-03T20:15:25.110Z,0.70
2019-04-03T20:17:54.901Z,0.80
2019-04-03T20:20:23.673Z,1.30
2019-04-03T20:22:52.135Z,1.45
2019-04-03T20:25:20.309Z,2.58
2019-04-03T20:27:51.367Z,2.72
2019-04-03T20:30:18.861Z,2.95
2019-04-03T20:32:47.311Z,3.33
2019-04-03T20:35:17.883Z,3.33
2019-04-03T20:37:51.025Z,3.20
2019-04-03T20:40:20.000Z,3.33
2019-04-03T20:42:48.451Z,3.70
2019-04-03T20:45:17.148Z,3.80
2019-04-03T20:47:47.055Z,3.95
2019-04-03T20:50:16.273Z,4.30
2019-04-03T20:52:46.272Z,4.47
2019-04-03T20:55:15.086Z,5.80
2019-04-03T20:57:54.993Z,5.42
2019-04-03T21:00:18.041Z,4.83
2019-04-03T21:02:44.580Z,4.22
2019-04-03T21:05:13.214Z,4.53
2019-04-03T21:07:41.294Z,4.08
2019-04-03T21:10:10.076Z,4.15
2019-04-03T21:12:38.543Z,4.30
2019-04-03T21:15:08.895Z,4.45
2019-04-03T21:17:36.787Z,4.97
2019-04-03T21:20:08.571Z,4.00
2019-04-03T21:22:38.533Z,3.92
2019-04-03T21:27:39.835Z,3.50
2019-04-03T21:30:09.116Z,3.42
2019-04-03T21:32:37.630Z,3.80
2019-04-03T21:35:05.713Z,3.22
2019-04-03T21:37:34.114Z,4.03
2019-04-03T21:40:04.949Z,3.27
2019-04-03T21:42:32.676Z,3.75
2019-04-03T21:45:02.801Z,3.55
2019-04-03T21:47:31.221Z,3.00
2019-04-03T21:49:59.628Z,2.92
2019-04-03T21:52:28.037Z,3.35
2019-04-03T21:54:58.398Z,3.33
2019-04-03T21:57:26.584Z,2.85
2019-04-03T21:59:54.982Z,3.35
2019-04-03T22:02:23.391Z,4.17
2019-04-03T22:04:51.894Z,2.42
2019-04-03T22:07:21.959Z,2.55
2019-04-03T22:09:50.390Z,2.85
2019-04-03T22:12:18.846Z,2.98
2019-04-03T22:14:46.899Z,3.05
2019-04-03T22:17:15.304Z,3.10
2019-04-03T22:19:43.410Z,3.02
2019-04-03T22:22:11.540Z,3.17
2019-04-03T22:24:39.958Z,2.70
2019-04-03T22:27:11.303Z,3.30
2019-04-03T22:29:38.168Z,2.70
2019-04-03T22:32:06.244Z,2.85
2019-04-03T22:34:34.313Z,2.45
2019-04-03T22:37:04.478Z,2.60
2019-04-03T22:39:32.876Z,2.40
2019-04-03T22:42:00.991Z,3.27
2019-04-03T22:44:29.427Z,3.00
2019-04-03T22:46:57.921Z,2.95
2019-04-03T22:49:26.369Z,2.72
2019-04-03T22:51:54.784Z,2.60
2019-04-03T22:54:22.876Z,2.45
2019-04-03T22:56:51.304Z,2.90
2019-04-03T22:59:19.714Z,2.92
2019-04-03T23:01:48.185Z,2.87
2019-04-03T23:04:16.589Z,2.92
2019-04-03T23:06:44.990Z,3.17
2019-04-03T23:09:13.407Z,3.12
2019-04-03T23:11:41.796Z,3.00
2019-04-03T23:14:10.208Z,2.62
2019-04-03T23:16:38.276Z,2.10
2019-04-03T23:19:06.365Z,2.10
2019-04-03T23:21:34.807Z,2.45
2019-04-03T23:24:02.954Z,2.12
2019-04-03T23:26:32.068Z,2.52
2019-04-03T23:29:03.018Z,2.42
2019-04-03T23:31:31.143Z,2.05
2019-04-03T23:33:59.596Z,2.10
2019-04-03T23:36:27.670Z,2.37
2019-04-03T23:38:56.718Z,2.37
2019-04-03T23:41:25.554Z,2.40
2019-04-03T23:43:53.963Z,1.75
2019-04-03T23:46:22.458Z,1.87
2019-04-03T23:48:50.871Z,2.10
2019-04-03T23:51:23.553Z,2.08
2019-04-03T23:56:38.616Z,1.82
2019-04-03T23:59:05.759Z,2.00
